• Join FlightAware (Why Join?)
  • Login
  • US Flag 
01:56PM EST


 

Airport Tracker/Info


-or-


 

Live Flight TrackerFlight Track Log ✈ RPA4886 ✈ 13-May-2013 ✈ KIAD - KALB

Flight Track Log - Related Links

Times and Time Zones

All times are in EDT time to prevent confusion due to time zone crossing. See the RPA4886 flight status page for this flight to view local times or setup timezone preferences in your user account.

Time Position Orientation Groundspeed Altitude Reporting Facility
EDT Latitude Longitude Course Direction KTS MPH feet Rate Location/Type
05:45PM 38.9833 -77.4333 North 178 205 2,200  Level Potomac TRACON
05:47PM 39.0844 -77.4500 353° North 232 267 5,900 2,160 Climbing Washington Center
05:48PM 39.2911 -77.4500 North  Level FlightAware Approximate
05:48PM 39.1450 -77.4569 355° North 232 267 8,400  Level Washington Center
05:49PM 39.3805 -77.4500 North  Level FlightAware Approximate
05:49PM 39.2075 -77.4558 North 226 260 10,800  Level Washington Center
05:50PM 39.4700 -77.4500 North  Level FlightAware Approximate
05:50PM 39.2722 -77.4550 North 221 254 13,000  Level Washington Center
05:51PM 39.5579 -77.4500 North  Level FlightAware Approximate
05:51PM 39.3367 -77.4567 359° North 226 260 14,800  Level Washington Center
05:52PM 39.4097 -77.4558 North 239 275 16,000 1,080 Climbing Washington Center
05:53PM 39.4889 -77.4550 360° North 258 297 17,000 1,140 Climbing Washington Center
05:56PM 39.7011 -77.4550 360° North 295 339 20,000 1,080 Climbing New York Center
05:57PM 39.7844 -77.4522 North 295 339 20,900 480 Climbing New York Center
05:58PM 39.8683 -77.4086 22° Northeast 306 352 21,000  Climbing New York Center
05:59PM 39.9586 -77.3603 22° Northeast 317 365 21,000  Level New York Center
06:00PM 40.0511 -77.3122 22° Northeast 336 387 21,000  Level New York Center
06:01PM 40.1308 -77.2653 24° Northeast 341 392 21,000  Level New York Center
06:02PM 40.2208 -77.2167 22° Northeast 346 398 21,000  Level New York Center
06:03PM 40.3111 -77.1678 22° Northeast 346 398 21,000  Level New York Center
06:04PM 40.4011 -77.1217 21° North 346 398 21,000  Level New York Center
06:05PM 40.4914 -77.0725 22° Northeast 346 398 21,000  Level New York Center
06:06PM 40.5797 -77.0206 24° Northeast 346 398 21,000  Level New York Center
06:07PM 40.6697 -76.9739 21° North 346 398 21,000  Level New York Center
06:08PM 40.7597 -76.9247 22° Northeast 346 398 21,000  Level New York Center
06:09PM 40.8475 -76.8775 22° Northeast 346 398 21,000  Level New York Center
06:10PM 40.9356 -76.8278 23° Northeast 341 392 21,000  Level New York Center
06:11PM 41.0236 -76.7778 23° Northeast 341 392 21,000  Level New York Center
06:12PM 41.1114 -76.7306 22° Northeast 341 392 21,000  Level New York Center
06:13PM 41.1972 -76.6831 23° Northeast 341 392 21,000  Level New York Center
06:14PM 41.2850 -76.6328 23° Northeast 341 392 21,000  Level New York Center
06:15PM 41.3792 -76.5800 23° Northeast 341 392 21,000  Level New York Center
06:16PM 41.4669 -76.5322 22° Northeast 341 392 21,000  Level New York Center
06:17PM 41.5506 -76.4839 23° Northeast 341 392 21,000  Level New York Center
06:18PM 41.6383 -76.4358 22° Northeast 341 392 21,000  Level New York Center
06:19PM 41.7803 -76.3547 23° Northeast 351 404 21,000  Level Boston Center
06:20PM 41.8633 -76.3069 23° Northeast 335 386 21,000  Level Boston Center
06:21PM 41.9506 -76.2564 23° Northeast 330 380 21,000  Level Boston Center
06:22PM 42.0333 -76.2083 23° Northeast 324 373 21,000  Level Boston Center
06:23PM 42.1142 -76.1628 23° Northeast 319 367 21,000  Level Boston Center
06:24PM 42.1836 -76.0828 40° Northeast 319 367 21,000  Level Boston Center
06:25PM 42.2206 -75.9617 68° East 321 369 21,000  Level Boston Center
06:26PM 42.2597 -75.8431 66° East 326 375 21,000  Level Boston Center
06:27PM 42.2981 -75.7469 62° Northeast 331 381 21,000  Level Boston Center
06:28PM 42.3344 -75.6364 66° East 341 392 21,000 -60 Level Boston Center
06:29PM 42.3781 -75.4953 67° East 347 399 20,900 -900 Descending Boston Center
06:30PM 42.4064 -75.3731 73° East 341 392 19,300 -1,440 Descending Boston Center
06:31PM 42.4275 -75.2783 73° East 341 392 18,100 -1,560 Descending Boston Center
06:32PM 42.4458 -75.1244 81° East 334 384 16,200 -1,800 Descending Boston Center
06:33PM 42.4653 -75.0042 78° East 334 384 14,600 -1,620 Descending Boston Center
06:34PM 42.4828 -74.8753 80° East 334 384 13,000 -1,500 Descending Boston Center
06:35PM 42.4997 -74.7633 78° East 334 384 11,600 -1,320 Descending Boston Center
06:36PM 42.5092 -74.6961 79° East 332 382 11,100 -600 Descending Boston Center
06:36PM 42.5189 -74.6317 78° East 334 384 11,000 -120 Descending Boston Center
06:37PM 42.5286 -74.5589 80° East 330 380 11,000  Level Boston Center
06:37PM 42.5336 -74.5194 80° East 334 384 11,000 -720 Level Boston Center
06:38PM 42.5433 -74.4325 81° East 332 382 10,300 -1,440 Descending Boston Center
06:38PM 42.5503 -74.3903 77° East 329 379 9,600 -1,800 Descending Boston Center
06:39PM 42.5619 -74.3175 78° East 289 333 8,300 -1,740 Descending Boston Center
06:39PM 42.5667 -74.2922 76° East 303 349 7,900 -1,920 Descending Boston Center
06:40PM 42.5808 -74.1828 80° East 280 322 5,900 -1,980 Descending Boston Center
06:41PM 42.5925 -74.1097 78° East 262 302 4,500 -1,620 Descending Boston Center
06:41PM 42.5947 -74.0956 78° East 267 307 4,300 -540 Descending Boston Center
06:42PM 42.6061 -74.0169 79° East 254 292 4,000 -300 Descending Boston Center
06:42PM 42.6086 -74.0000 79° East 256 295 4,000  Level Boston Center
06:43PM 42.6178 -73.9242 81° East 255 293 4,000  Level Boston Center
06:44PM 42.6317 -73.8314 78° East 246 283 4,000  Level Boston Center
06:45PM 42.6431 -73.7356 81° East 238 274 4,000  Level Boston Center
06:46PM 42.6586 -73.6483 76° East 235 270 4,000 -480 Level Boston Center
06:47PM 42.6947 -73.5925 49° Northeast 208 239 3,100 -840 Descending Boston Center